createdAt,value
2022-11-23T00:01:58.598Z,7.55
2022-11-23T00:04:46.545Z,7.73
2022-11-23T00:07:34.725Z,7.74
2022-11-23T00:10:23.009Z,7.76
2022-11-23T00:13:12.343Z,7.80
2022-11-23T00:16:00.260Z,7.71
2022-11-23T00:18:48.925Z,7.61
2022-11-23T00:21:36.924Z,7.66
2022-11-23T00:24:24.881Z,7.59
2022-11-23T00:27:12.925Z,7.74
2022-11-23T00:30:02.161Z,7.67
2022-11-23T00:32:50.538Z,7.40
2022-11-23T00:35:38.483Z,7.26
2022-11-23T00:38:26.399Z,7.25
2022-11-23T00:41:16.195Z,7.18
2022-11-23T00:44:04.509Z,7.20
2022-11-23T00:46:53.805Z,7.13
2022-11-23T00:49:41.781Z,7.30
2022-11-23T00:52:29.858Z,7.26
2022-11-23T00:55:17.917Z,7.40
2022-11-23T00:58:05.966Z,7.29
2022-11-23T01:01:01.798Z,7.39
2022-11-23T01:03:54.341Z,7.19
2022-11-23T01:06:42.540Z,7.45
2022-11-23T01:09:30.719Z,7.56
2022-11-23T01:12:18.738Z,7.49
2022-11-23T01:15:09.847Z,7.59
2022-11-23T01:17:57.791Z,7.59
2022-11-23T01:20:47.108Z,7.51
2022-11-23T01:23:35.161Z,7.64
2022-11-23T01:26:25.026Z,7.56
2022-11-23T01:29:13.556Z,7.67
2022-11-23T01:32:01.606Z,7.60
2022-11-23T01:34:49.571Z,7.67
2022-11-23T01:37:38.839Z,7.49
2022-11-23T01:40:26.791Z,7.54
2022-11-23T01:43:17.003Z,7.64
2022-11-23T01:46:05.548Z,7.68
2022-11-23T01:48:58.622Z,7.45
2022-11-23T01:51:51.820Z,7.64
2022-11-23T01:54:47.522Z,7.77
2022-11-23T01:57:40.163Z,7.65
2022-11-23T02:00:29.265Z,7.78
2022-11-23T02:03:18.320Z,7.63
2022-11-23T02:06:10.893Z,7.63
2022-11-23T02:09:01.447Z,7.67
2022-11-23T02:11:50.747Z,7.81
2022-11-23T02:14:39.362Z,7.86
2022-11-23T02:17:27.293Z,7.81
2022-11-23T02:20:19.303Z,7.79
2022-11-23T02:23:20.996Z,7.50
2022-11-23T02:26:14.370Z,7.69
2022-11-23T02:29:07.107Z,7.71
2022-11-23T02:31:55.576Z,7.69
2022-11-23T02:34:45.801Z,7.77
2022-11-23T02:37:34.040Z,7.84
2022-11-23T02:40:28.862Z,7.77
2022-11-23T02:43:18.194Z,7.71
2022-11-23T02:46:07.773Z,7.74
2022-11-23T02:48:55.744Z,7.60
2022-11-23T02:51:43.668Z,7.55
2022-11-23T02:54:31.803Z,7.62
2022-11-23T02:57:19.878Z,7.57
2022-11-23T03:00:11.080Z,7.64
2022-11-23T03:03:01.231Z,7.71
2022-11-23T03:05:49.338Z,7.78
2022-11-23T03:08:37.289Z,7.63
2022-11-23T03:11:25.277Z,7.61
2022-11-23T03:14:13.298Z,7.52
2022-11-23T03:17:12.552Z,7.52
2022-11-23T03:20:02.713Z,7.71
2022-11-23T03:22:56.812Z,7.64
2022-11-23T03:25:45.849Z,7.73
2022-11-23T03:28:35.990Z,7.77
2022-11-23T03:31:24.549Z,7.85
2022-11-23T03:34:14.105Z,7.70
2022-11-23T03:37:02.097Z,7.93
2022-11-23T03:39:50.092Z,7.72
2022-11-23T03:43:16.306Z,7.84
2022-11-23T03:46:04.253Z,7.72
2022-11-23T03:48:52.327Z,7.84
2022-11-23T03:51:43.446Z,7.94
2022-11-23T03:54:31.439Z,7.82
2022-11-23T03:57:20.143Z,7.89
2022-11-23T04:00:09.962Z,7.80
2022-11-23T04:03:01.209Z,7.85
2022-11-23T04:06:07.987Z,7.54
2022-11-23T04:09:15.417Z,7.81
2022-11-23T04:12:13.938Z,7.82
2022-11-23T04:15:01.879Z,7.69
2022-11-23T04:17:50.366Z,7.87
2022-11-23T04:20:38.679Z,7.85
2022-11-23T04:23:27.106Z,7.89
2022-11-23T04:26:16.681Z,7.39
2022-11-23T04:29:07.181Z,7.81
2022-11-23T04:31:57.206Z,7.90
2022-11-23T04:34:45.166Z,7.86
2022-11-23T04:37:34.772Z,7.92
2022-11-23T04:40:23.628Z,7.77
2022-11-23T04:43:24.779Z,7.93
2022-11-23T04:46:13.210Z,7.93
2022-11-23T04:49:01.349Z,7.88
2022-11-23T04:51:49.431Z,7.78
2022-11-23T04:54:39.922Z,7.79
2022-11-23T04:57:29.803Z,7.77
2022-11-23T05:00:20.207Z,7.90
2022-11-23T05:03:09.352Z,7.77
2022-11-23T05:06:00.210Z,7.86
2022-11-23T05:08:55.117Z,7.89
2022-11-23T05:12:08.853Z,7.87
2022-11-23T05:14:57.547Z,7.68
2022-11-23T05:17:58.963Z,7.86
2022-11-23T05:20:47.601Z,7.85
2022-11-23T05:23:37.240Z,7.68
2022-11-23T05:26:25.495Z,7.80
2022-11-23T05:29:14.274Z,7.82
2022-11-23T05:32:02.302Z,7.81
2022-11-23T05:34:51.627Z,7.85
2022-11-23T05:37:40.327Z,7.73
2022-11-23T05:40:31.776Z,7.84
2022-11-23T05:43:23.805Z,7.69
2022-11-23T05:46:12.001Z,7.65
2022-11-23T05:49:00.538Z,7.86
2022-11-23T05:51:54.102Z,7.83
2022-11-23T05:54:42.420Z,7.80
2022-11-23T05:57:33.632Z,7.75
2022-11-23T06:00:21.948Z,7.70
2022-11-23T06:03:19.410Z,7.85
2022-11-23T06:06:08.142Z,7.88
2022-11-23T06:09:02.902Z,7.90
2022-11-23T06:11:52.066Z,7.89
2022-11-23T06:14:41.758Z,7.92
2022-11-23T06:17:29.851Z,7.94
2022-11-23T06:20:23.544Z,7.89
2022-11-23T06:23:18.375Z,7.88
2022-11-23T06:26:08.431Z,7.89
2022-11-23T06:28:56.881Z,7.96
2022-11-23T06:31:45.644Z,7.99
2022-11-23T06:34:34.258Z,7.93
2022-11-23T06:37:22.486Z,7.91
2022-11-23T06:40:13.866Z,7.97
2022-11-23T06:43:04.199Z,8.10
2022-11-23T06:45:59.851Z,8.04
2022-11-23T06:48:51.228Z,8.08
2022-11-23T06:51:39.312Z,8.06
2022-11-23T06:54:27.620Z,8.02
2022-11-23T06:57:16.984Z,7.86
2022-11-23T07:00:08.012Z,8.12
2022-11-23T07:03:00.453Z,8.01
2022-11-23T07:05:31.200Z,7.89
2022-11-23T07:07:59.088Z,7.70
2022-11-23T07:10:28.210Z,7.96
2022-11-23T07:13:05.317Z,7.76
2022-11-23T07:15:34.952Z,7.84
2022-11-23T07:18:04.160Z,7.91
2022-11-23T07:20:33.068Z,8.05
2022-11-23T07:23:02.083Z,8.04
2022-11-23T07:25:30.140Z,7.62
2022-11-23T07:27:58.340Z,7.93
2022-11-23T07:30:29.505Z,8.10
2022-11-23T07:33:02.243Z,8.12
2022-11-23T07:35:31.709Z,8.13
2022-11-23T07:37:59.842Z,7.98
2022-11-23T07:40:28.174Z,8.12
2022-11-23T07:43:00.741Z,8.05
2022-11-23T07:45:28.629Z,8.34
2022-11-23T07:48:02.954Z,8.14
2022-11-23T07:50:31.449Z,8.13
2022-11-23T07:52:59.283Z,7.76
2022-11-23T07:55:28.401Z,7.64
2022-11-23T07:57:56.324Z,7.88
2022-11-23T08:00:24.992Z,7.92
2022-11-23T08:03:25.721Z,7.86
2022-11-23T08:05:42.214Z,7.99
2022-11-23T08:08:10.062Z,7.94
2022-11-23T08:10:43.627Z,7.92
2022-11-23T08:13:13.873Z,7.90
2022-11-23T08:15:41.544Z,7.93
2022-11-23T08:18:10.584Z,7.96
2022-11-23T08:20:38.191Z,7.97
2022-11-23T08:23:07.219Z,8.09
2022-11-23T08:25:34.849Z,7.88
2022-11-23T08:28:04.344Z,8.03
2022-11-23T08:30:33.453Z,8.09
2022-11-23T08:33:04.130Z,8.08
2022-11-23T08:35:31.822Z,8.22
2022-11-23T08:37:59.478Z,8.25
2022-11-23T08:40:28.667Z,8.23
2022-11-23T08:42:56.568Z,8.34
2022-11-23T08:45:24.813Z,8.27
2022-11-23T08:47:52.991Z,8.49
2022-11-23T08:50:21.442Z,8.51
2022-11-23T08:52:49.116Z,8.32
2022-11-23T08:55:17.207Z,8.44
2022-11-23T08:57:46.269Z,8.68
2022-11-23T09:00:15.299Z,8.45
2022-11-23T09:02:42.999Z,8.51
2022-11-23T09:05:11.372Z,8.62
2022-11-23T09:07:39.273Z,8.91
2022-11-23T09:10:08.340Z,8.66
2022-11-23T09:12:35.992Z,8.75
2022-11-23T09:15:05.646Z,9.11
2022-11-23T09:17:33.367Z,9.12
2022-11-23T09:20:01.297Z,9.25
2022-11-23T09:22:29.366Z,9.23
2022-11-23T09:24:57.010Z,9.25
2022-11-23T09:27:24.931Z,9.13
2022-11-23T09:29:52.616Z,9.22
2022-11-23T09:32:21.677Z,9.23
2022-11-23T09:34:49.336Z,9.39
2022-11-23T09:37:17.030Z,9.16
2022-11-23T09:39:44.684Z,9.08
2022-11-23T09:42:46.195Z,9.04
2022-11-23T09:45:23.536Z,9.08
2022-11-23T09:48:18.163Z,9.43
2022-11-23T09:50:52.545Z,9.46
2022-11-23T09:53:23.664Z,9.65
2022-11-23T09:55:54.820Z,9.71
2022-11-23T09:58:24.150Z,9.72
2022-11-23T10:01:00.276Z,9.81
2022-11-23T10:03:33.858Z,9.69
2022-11-23T10:06:07.639Z,9.42
2022-11-23T10:08:45.677Z,9.48
2022-11-23T10:11:31.785Z,9.59
2022-11-23T10:14:12.361Z,9.69
2022-11-23T10:16:48.072Z,9.80
2022-11-23T10:19:27.854Z,9.84
2022-11-23T10:22:04.621Z,9.92
2022-11-23T10:24:38.583Z,9.86
2022-11-23T10:27:12.187Z,10.06
2022-11-23T10:29:40.254Z,9.96
2022-11-23T10:32:22.654Z,10.09
2022-11-23T10:35:00.027Z,10.20
2022-11-23T10:37:27.854Z,10.19
2022-11-23T10:39:55.507Z,10.12
2022-11-23T10:42:29.964Z,10.13
2022-11-23T10:44:59.644Z,10.35
2022-11-23T10:47:50.319Z,10.22
2022-11-23T10:50:25.599Z,10.27
2022-11-23T10:52:55.875Z,10.29
2022-11-23T10:55:27.990Z,10.32
2022-11-23T10:57:56.296Z,10.26
2022-11-23T11:00:30.332Z,10.13
2022-11-23T11:03:00.033Z,10.19
2022-11-23T11:06:14.934Z,10.11
2022-11-23T11:08:22.748Z,10.14
2022-11-23T11:10:57.833Z,10.11
2022-11-23T11:13:27.816Z,10.18
2022-11-23T11:15:57.303Z,10.21
2022-11-23T11:18:29.753Z,10.13
2022-11-23T11:21:02.655Z,10.01
2022-11-23T11:23:32.224Z,10.30
2022-11-23T11:26:17.896Z,10.43
2022-11-23T11:28:49.936Z,10.05
2022-11-23T11:31:28.413Z,10.43
2022-11-23T11:34:05.005Z,10.38
2022-11-23T11:36:41.056Z,10.49
2022-11-23T11:39:19.614Z,10.60
2022-11-23T11:41:50.916Z,10.53
2022-11-23T11:44:22.427Z,10.70
2022-11-23T11:46:57.784Z,10.55
2022-11-23T11:49:30.874Z,10.80
2022-11-23T11:52:05.973Z,10.60
2022-11-23T11:54:40.159Z,10.88
2022-11-23T11:57:17.472Z,10.66
2022-11-23T11:59:48.370Z,10.87
2022-11-23T12:02:22.808Z,11.01
2022-11-23T12:05:00.189Z,10.96
2022-11-23T12:07:32.617Z,11.04
2022-11-23T12:10:10.590Z,11.03
2022-11-23T12:12:38.470Z,11.13
2022-11-23T12:15:26.367Z,11.23
2022-11-23T12:18:14.133Z,11.14
2022-11-23T12:20:52.008Z,11.22
2022-11-23T12:23:31.268Z,11.29
2022-11-23T12:26:13.559Z,11.44
2022-11-23T12:28:58.492Z,11.51
2022-11-23T12:31:39.419Z,11.39
2022-11-23T12:34:30.316Z,11.39
2022-11-23T12:37:11.881Z,11.17
2022-11-23T12:40:11.832Z,11.45
2022-11-23T12:42:43.639Z,11.31
2022-11-23T12:45:40.145Z,11.49
2022-11-23T12:48:23.203Z,11.53
2022-11-23T12:51:00.403Z,11.43
2022-11-23T12:53:41.883Z,11.34
2022-11-23T12:56:20.513Z,11.13
2022-11-23T12:58:50.216Z,11.34
2022-11-23T13:01:26.399Z,11.49
2022-11-23T13:04:42.221Z,11.62
2022-11-23T13:07:35.947Z,11.64
2022-11-23T13:10:36.630Z,11.58
2022-11-23T13:13:20.991Z,11.63
2022-11-23T13:16:08.227Z,11.54
2022-11-23T13:18:49.570Z,11.36
2022-11-23T13:21:27.917Z,11.20
2022-11-23T13:23:55.645Z,11.12
2022-11-23T13:26:25.206Z,11.19
2022-11-23T13:28:56.727Z,11.28
2022-11-23T13:31:28.020Z,11.46
2022-11-23T13:33:57.490Z,11.17
2022-11-23T13:37:11.113Z,11.43
2022-11-23T13:40:08.065Z,11.21
2022-11-23T13:42:36.305Z,11.35
2022-11-23T13:45:29.527Z,11.56
2022-11-23T13:48:55.061Z,11.27
2022-11-23T13:51:10.275Z,11.35
2022-11-23T13:53:40.374Z,11.24
2022-11-23T13:56:24.817Z,11.21
2022-11-23T13:58:55.013Z,11.06
2022-11-23T14:02:02.549Z,10.90
2022-11-23T14:04:33.070Z,11.04
2022-11-23T14:07:04.416Z,10.95
2022-11-23T14:09:37.369Z,11.10
2022-11-23T14:12:15.796Z,11.09
2022-11-23T14:15:01.504Z,11.07
2022-11-23T14:18:11.880Z,10.93
2022-11-23T14:20:56.417Z,10.71
2022-11-23T14:24:02.217Z,10.70
2022-11-23T14:26:39.203Z,10.43
2022-11-23T14:29:27.229Z,10.32
2022-11-23T14:32:11.752Z,10.23
2022-11-23T14:34:48.163Z,10.16
2022-11-23T14:37:26.613Z,10.30
2022-11-23T14:40:06.453Z,10.47
2022-11-23T14:42:40.667Z,10.30
2022-11-23T14:45:13.227Z,10.01
2022-11-23T14:47:41.069Z,9.87
2022-11-23T14:50:22.095Z,9.80
2022-11-23T14:52:53.696Z,9.70
2022-11-23T14:55:24.390Z,9.56
2022-11-23T14:57:55.795Z,9.46
2022-11-23T15:00:31.729Z,9.26
2022-11-23T15:03:20.636Z,9.21
2022-11-23T15:05:53.959Z,9.20
2022-11-23T15:08:26.049Z,9.03
2022-11-23T15:11:02.827Z,8.86
2022-11-23T15:13:33.121Z,8.53
2022-11-23T15:16:05.048Z,8.68
2022-11-23T15:18:34.620Z,8.57
2022-11-23T15:21:05.033Z,8.68
2022-11-23T15:23:37.111Z,8.80
2022-11-23T15:26:07.512Z,8.60
2022-11-23T15:28:37.167Z,8.40
2022-11-23T15:31:19.319Z,8.05
2022-11-23T15:33:49.165Z,7.91
2022-11-23T15:36:19.554Z,7.72
2022-11-23T15:38:49.189Z,7.46
2022-11-23T15:41:18.485Z,7.35
2022-11-23T15:43:54.074Z,7.27
2022-11-23T15:46:25.617Z,7.08
2022-11-23T15:48:55.014Z,7.11
2022-11-23T15:51:27.113Z,7.04
2022-11-23T15:53:59.135Z,6.90
2022-11-23T15:56:30.980Z,7.03
2022-11-23T15:59:01.305Z,7.63
2022-11-23T16:01:29.391Z,7.79
2022-11-23T16:04:02.038Z,8.21
2022-11-23T16:06:36.432Z,8.33
2022-11-23T16:09:50.644Z,8.80
2022-11-23T16:12:25.597Z,8.84
2022-11-23T16:14:54.506Z,8.97
2022-11-23T16:17:24.547Z,9.14
2022-11-23T16:19:53.976Z,9.11
2022-11-23T16:22:28.664Z,9.15
2022-11-23T16:25:03.067Z,9.02
2022-11-23T16:27:30.888Z,9.28
2022-11-23T16:30:02.820Z,9.34
2022-11-23T16:32:32.269Z,9.15
2022-11-23T16:35:16.315Z,9.32
2022-11-23T16:37:44.361Z,9.46
2022-11-23T16:40:14.990Z,9.47
2022-11-23T16:42:42.721Z,9.62
2022-11-23T16:45:11.732Z,9.56
2022-11-23T16:47:52.824Z,9.50
2022-11-23T16:50:21.107Z,9.59
2022-11-23T16:52:48.789Z,9.79
2022-11-23T16:55:18.115Z,9.76
2022-11-23T16:57:46.729Z,9.67
2022-11-23T17:00:16.633Z,9.79
2022-11-23T17:02:44.486Z,9.74
2022-11-23T17:05:16.059Z,9.62
2022-11-23T17:07:44.082Z,9.43
2022-11-23T17:10:12.607Z,9.53
2022-11-23T17:12:46.704Z,9.40
2022-11-23T17:15:14.756Z,9.51
2022-11-23T17:17:42.461Z,9.03
2022-11-23T17:20:12.860Z,8.97
2022-11-23T17:22:40.679Z,8.47
2022-11-23T17:25:14.457Z,8.50
2022-11-23T17:27:46.088Z,8.39
2022-11-23T17:30:16.201Z,8.27
2022-11-23T17:32:43.926Z,8.15
2022-11-23T17:35:11.794Z,8.06
2022-11-23T17:37:39.503Z,7.97
2022-11-23T17:40:14.279Z,8.01
2022-11-23T17:42:41.931Z,7.75
2022-11-23T17:45:12.020Z,7.80
2022-11-23T17:47:42.296Z,7.78
2022-11-23T17:50:13.715Z,7.73
2022-11-23T17:52:44.334Z,7.72
2022-11-23T17:55:13.427Z,7.60
2022-11-23T17:57:41.681Z,7.54
2022-11-23T18:00:17.398Z,7.53
2022-11-23T18:02:45.279Z,7.60
2022-11-23T18:05:16.470Z,7.57
2022-11-23T18:07:48.877Z,7.48
2022-11-23T18:10:17.410Z,7.46
2022-11-23T18:12:45.754Z,7.45
2022-11-23T18:15:15.218Z,7.39
2022-11-23T18:17:43.165Z,7.39
2022-11-23T18:20:11.769Z,7.40
2022-11-23T18:22:39.412Z,7.47
2022-11-23T18:25:07.685Z,7.48
2022-11-23T18:27:35.345Z,7.50
2022-11-23T18:30:03.019Z,7.37
2022-11-23T18:32:32.222Z,7.52
2022-11-23T18:34:59.900Z,7.53
2022-11-23T18:37:27.544Z,7.43
2022-11-23T18:39:55.188Z,7.45
2022-11-23T18:42:23.104Z,7.30
2022-11-23T18:44:50.773Z,7.26
2022-11-23T18:47:18.424Z,7.23
2022-11-23T18:49:47.406Z,7.05
2022-11-23T18:52:15.048Z,7.20
2022-11-23T18:54:42.727Z,7.09
2022-11-23T18:57:11.902Z,7.23
2022-11-23T18:59:57.476Z,7.25
2022-11-23T19:02:26.241Z,7.26
2022-11-23T19:04:55.252Z,7.36
2022-11-23T19:07:26.858Z,7.31
2022-11-23T19:09:55.167Z,7.33
2022-11-23T19:12:22.871Z,7.18
2022-11-23T19:14:50.529Z,7.23
2022-11-23T19:17:18.215Z,7.23
2022-11-23T19:19:45.855Z,7.22
2022-11-23T19:22:14.854Z,7.21
2022-11-23T19:24:42.539Z,7.23
2022-11-23T19:27:10.136Z,7.29
2022-11-23T19:29:38.240Z,7.29
2022-11-23T19:32:06.826Z,7.31
2022-11-23T19:34:34.958Z,7.29
2022-11-23T19:37:03.037Z,7.32
2022-11-23T19:39:32.490Z,7.28
2022-11-23T19:42:00.444Z,7.33
2022-11-23T19:44:28.581Z,7.36
2022-11-23T19:46:56.774Z,7.49
2022-11-23T19:49:24.628Z,7.45
2022-11-23T19:51:54.147Z,7.33
2022-11-23T19:54:22.406Z,7.33
2022-11-23T19:56:52.121Z,7.34
2022-11-23T19:59:19.777Z,7.31
2022-11-23T20:01:47.835Z,7.24
2022-11-23T20:04:15.577Z,7.35
2022-11-23T20:06:43.697Z,7.40
2022-11-23T20:09:13.129Z,7.45
2022-11-23T20:11:41.345Z,7.45
2022-11-23T20:14:12.424Z,7.45
2022-11-23T20:16:40.338Z,7.46
2022-11-23T20:19:10.103Z,7.18
2022-11-23T20:21:39.194Z,7.39
2022-11-23T20:24:09.903Z,7.40
2022-11-23T20:26:37.882Z,7.42
2022-11-23T20:29:07.147Z,7.38
2022-11-23T20:31:36.701Z,7.44
2022-11-23T20:34:07.542Z,7.52
2022-11-23T20:36:37.996Z,7.52
2022-11-23T20:39:08.291Z,7.51
2022-11-23T20:41:37.714Z,7.53
2022-11-23T20:44:07.299Z,7.48
2022-11-23T20:49:24.521Z,7.40
2022-11-23T20:51:52.201Z,7.26
2022-11-23T20:54:19.892Z,7.35
2022-11-23T20:56:47.586Z,7.35
2022-11-23T20:59:15.425Z,7.38
2022-11-23T21:01:44.510Z,7.36
2022-11-23T21:04:32.871Z,7.27
2022-11-23T21:07:21.022Z,7.21
2022-11-23T21:10:09.525Z,7.29
2022-11-23T21:13:14.928Z,7.44
2022-11-23T21:16:06.892Z,7.44
2022-11-23T21:18:56.228Z,7.53
2022-11-23T21:21:44.127Z,7.62
2022-11-23T21:24:34.983Z,7.72
2022-11-23T21:27:28.049Z,7.65
2022-11-23T21:30:16.210Z,7.67
2022-11-23T21:33:04.272Z,7.67
2022-11-23T21:35:53.543Z,7.72
2022-11-23T21:38:41.772Z,7.68
2022-11-23T21:41:29.693Z,7.71
2022-11-23T21:44:18.832Z,7.65
2022-11-23T21:47:06.994Z,7.62
2022-11-23T21:49:54.968Z,7.57
2022-11-23T21:52:44.300Z,7.45
2022-11-23T21:55:32.749Z,7.43
2022-11-23T21:58:20.685Z,7.25
2022-11-23T22:01:10.429Z,7.24
2022-11-23T22:04:00.591Z,7.25
2022-11-23T22:06:48.505Z,7.34
2022-11-23T22:09:37.985Z,7.53
2022-11-23T22:12:26.583Z,7.63
2022-11-23T22:15:15.358Z,7.73
2022-11-23T22:18:03.265Z,7.76
2022-11-23T22:20:52.014Z,7.74
2022-11-23T22:23:40.268Z,7.78
2022-11-23T22:26:29.763Z,7.87
2022-11-23T22:29:17.718Z,7.80
2022-11-23T22:32:06.197Z,7.85
2022-11-23T22:34:54.342Z,7.93
2022-11-23T22:37:42.338Z,7.97
2022-11-23T22:40:32.680Z,7.94
2022-11-23T22:43:22.120Z,7.87
2022-11-23T22:46:12.544Z,7.80
2022-11-23T22:49:00.570Z,7.80
2022-11-23T22:51:48.653Z,7.86
2022-11-23T22:54:36.691Z,7.81
2022-11-23T22:57:24.659Z,7.76
2022-11-23T23:00:16.605Z,7.85
2022-11-23T23:03:04.693Z,7.93
2022-11-23T23:05:56.016Z,8.00
2022-11-23T23:08:44.351Z,8.01
2022-11-23T23:11:33.552Z,7.84
2022-11-23T23:14:21.435Z,7.86
2022-11-23T23:17:10.734Z,7.99
2022-11-23T23:19:58.704Z,7.90
2022-11-23T23:22:46.621Z,7.82
2022-11-23T23:25:36.093Z,7.75
2022-11-23T23:28:24.308Z,7.70
2022-11-23T23:31:16.026Z,7.73
2022-11-23T23:34:05.582Z,7.76
2022-11-23T23:36:53.689Z,7.80
2022-11-23T23:39:41.633Z,7.87
2022-11-23T23:42:29.701Z,7.97
2022-11-23T23:45:17.601Z,8.08
2022-11-23T23:48:05.750Z,7.98
2022-11-23T23:50:55.097Z,8.04
2022-11-23T23:53:43.587Z,8.03
2022-11-23T23:56:31.508Z,8.13
2022-11-23T23:59:19.631Z,8.19
